X  Schlie├čen METAR Luftfahrt Wetterdaten     LGRX Patras Araxos Agamemnon Airport
Temperatur
25°C Temperatur
12°C Taupunkt
44% Feuchtigkeit



Wind
2 M/S
5 MPS
8 KM/S
4 KTS



360°
N
Aktuelle Wetterlage

Klar Klar
Luftdruck 1022.01 (hPa) - 30.18 (inHg)
Sichtweite 6 (Meile) - 9.7 (Km)
Flughafen
Flughafen Code LGRX

Position : Patras Araxos Agamemnon Airport
Entfernung: 108 (Km)

Metar:
LGRX 130850Z 36004KT CAVOK 25/12 Q1022

Zeit: 13-04-2024 11:50 EEST